createdAt,value
2019-05-30T00:00:53.897Z,8.90
2019-05-30T00:03:26.194Z,8.80
2019-05-30T00:05:58.321Z,8.80
2019-05-30T00:08:30.051Z,8.80
2019-05-30T00:11:02.768Z,8.70
2019-05-30T00:13:34.760Z,8.70
2019-05-30T00:16:06.637Z,8.70
2019-05-30T00:18:38.377Z,8.60
2019-05-30T00:21:10.142Z,8.60
2019-05-30T00:23:41.803Z,8.60
2019-05-30T00:26:13.629Z,8.50
2019-05-30T00:28:45.407Z,8.50
2019-05-30T00:31:17.196Z,8.50
2019-05-30T00:33:49.133Z,8.50
2019-05-30T00:36:20.900Z,8.40
2019-05-30T00:38:52.707Z,8.40
2019-05-30T00:41:24.422Z,8.30
2019-05-30T00:43:56.313Z,8.30
2019-05-30T00:46:28.202Z,8.30
2019-05-30T00:49:00.202Z,8.30
2019-05-30T00:51:31.920Z,8.20
2019-05-30T00:54:04.714Z,8.20
2019-05-30T00:56:36.510Z,8.10
2019-05-30T00:59:08.196Z,8.10
2019-05-30T01:01:40.083Z,8.10
2019-05-30T01:04:11.633Z,8.00
2019-05-30T01:06:43.394Z,8.00
2019-05-30T01:09:15.144Z,8.00
2019-05-30T01:11:46.958Z,7.90
2019-05-30T01:14:18.871Z,7.90
2019-05-30T01:16:50.501Z,7.80
2019-05-30T01:19:22.373Z,7.80
2019-05-30T01:21:53.997Z,7.70
2019-05-30T01:24:25.780Z,7.70
2019-05-30T01:26:57.589Z,7.60
2019-05-30T01:29:29.441Z,7.60
2019-05-30T01:32:05.548Z,7.60
2019-05-30T01:34:37.336Z,7.50
2019-05-30T01:37:09.146Z,7.50
2019-05-30T01:39:40.965Z,7.50
2019-05-30T01:42:12.662Z,7.50
2019-05-30T01:44:44.335Z,7.40
2019-05-30T01:47:16.159Z,7.40
2019-05-30T01:49:47.866Z,7.40
2019-05-30T01:52:19.760Z,7.40
2019-05-30T01:54:51.277Z,7.30
2019-05-30T01:57:22.922Z,7.30
2019-05-30T01:59:54.699Z,7.30
2019-05-30T02:02:26.639Z,7.30
2019-05-30T02:04:58.850Z,7.30
2019-05-30T02:07:30.629Z,7.20
2019-05-30T02:10:03.270Z,7.20
2019-05-30T02:12:35.328Z,7.20
2019-05-30T02:15:08.139Z,7.20
2019-05-30T02:17:40.000Z,7.20
2019-05-30T02:20:12.190Z,7.20
2019-05-30T02:22:44.015Z,7.20
2019-05-30T02:25:15.842Z,7.20
2019-05-30T02:27:47.630Z,7.20
2019-05-30T02:30:20.263Z,7.20
2019-05-30T02:32:52.090Z,7.20
2019-05-30T02:35:23.355Z,7.20
2019-05-30T02:37:55.112Z,7.20
2019-05-30T02:40:27.312Z,7.20
2019-05-30T02:42:59.092Z,7.20
2019-05-30T02:45:30.953Z,7.20
2019-05-30T02:48:03.181Z,7.20
2019-05-30T02:50:35.172Z,7.20
2019-05-30T02:53:08.311Z,7.30
2019-05-30T02:55:40.181Z,7.30
2019-05-30T02:58:12.879Z,7.20
2019-05-30T03:00:45.572Z,7.30
2019-05-30T03:03:17.390Z,7.30
2019-05-30T03:05:49.474Z,7.30
2019-05-30T03:08:21.136Z,7.30
2019-05-30T03:10:53.514Z,7.30
2019-05-30T03:13:25.966Z,7.40
2019-05-30T03:15:58.155Z,7.40
2019-05-30T03:18:29.936Z,7.50
2019-05-30T03:21:03.163Z,7.50
2019-05-30T03:23:35.222Z,7.60
2019-05-30T03:26:09.730Z,7.60
2019-05-30T03:28:40.661Z,7.70
2019-05-30T03:31:25.489Z,7.70
2019-05-30T03:33:46.324Z,7.70
2019-05-30T03:36:28.725Z,7.70
2019-05-30T03:38:51.773Z,7.70
2019-05-30T03:41:23.714Z,7.70
2019-05-30T03:43:55.380Z,7.80
2019-05-30T03:46:30.051Z,7.80
2019-05-30T03:49:06.113Z,7.80
2019-05-30T03:51:39.526Z,7.80
2019-05-30T03:54:13.734Z,7.80
2019-05-30T03:56:48.650Z,7.90
2019-05-30T03:59:30.242Z,7.90
2019-05-30T04:02:15.989Z,7.90
2019-05-30T04:04:52.906Z,7.90
2019-05-30T04:07:27.966Z,7.90
2019-05-30T04:10:04.511Z,8.00
2019-05-30T04:13:12.101Z,8.00
2019-05-30T04:15:45.106Z,8.00
2019-05-30T04:18:17.191Z,8.10
2019-05-30T04:20:49.068Z,8.10
2019-05-30T04:23:20.985Z,8.20
2019-05-30T04:25:53.213Z,8.30
2019-05-30T04:28:25.297Z,8.30
2019-05-30T04:30:57.276Z,8.30
2019-05-30T04:33:33.384Z,8.40
2019-05-30T04:36:03.028Z,8.40
2019-05-30T04:38:35.111Z,8.50
2019-05-30T04:41:06.910Z,8.50
2019-05-30T04:43:38.802Z,8.50
2019-05-30T04:46:12.204Z,8.50
2019-05-30T04:48:44.150Z,8.60
2019-05-30T04:51:16.478Z,8.60
2019-05-30T04:53:48.502Z,8.60
2019-05-30T04:56:21.966Z,8.70
2019-05-30T04:58:59.695Z,8.70
2019-05-30T05:01:31.649Z,8.80
2019-05-30T05:04:03.525Z,8.80
2019-05-30T05:06:35.478Z,8.90
2019-05-30T05:09:07.923Z,8.90
2019-05-30T05:11:39.720Z,9.00
2019-05-30T05:14:12.304Z,9.10
2019-05-30T05:16:44.369Z,9.20
2019-05-30T05:19:17.206Z,9.20
2019-05-30T05:21:49.022Z,9.30
2019-05-30T05:24:21.479Z,9.40
2019-05-30T05:26:53.380Z,9.50
2019-05-30T05:29:25.241Z,9.60
2019-05-30T05:31:57.186Z,9.80
2019-05-30T05:34:29.659Z,9.90
2019-05-30T05:37:01.247Z,10.40
2019-05-30T05:39:33.531Z,11.90
2019-05-30T05:42:06.175Z,13.60
2019-05-30T05:44:38.596Z,14.90
2019-05-30T05:47:10.699Z,15.90
2019-05-30T05:49:42.624Z,16.60
2019-05-30T05:52:14.648Z,17.00
2019-05-30T05:54:52.288Z,17.20
2019-05-30T05:57:25.027Z,17.60
2019-05-30T05:59:58.000Z,17.90
2019-05-30T06:02:30.079Z,18.20
2019-05-30T06:05:04.163Z,18.20
2019-05-30T06:07:36.318Z,18.30
2019-05-30T06:10:08.434Z,18.50
2019-05-30T06:12:40.872Z,18.70
2019-05-30T06:15:13.372Z,19.10
2019-05-30T06:17:45.856Z,19.20
2019-05-30T06:20:19.237Z,19.20
2019-05-30T06:22:51.662Z,19.30
2019-05-30T06:25:26.621Z,19.30
2019-05-30T06:27:57.945Z,19.30
2019-05-30T06:30:29.927Z,19.50
2019-05-30T06:33:03.250Z,20.20
2019-05-30T06:35:35.648Z,20.70
2019-05-30T06:38:07.556Z,21.20
2019-05-30T06:40:39.645Z,21.50
2019-05-30T06:43:12.302Z,22.00
2019-05-30T06:45:44.340Z,22.30
2019-05-30T06:48:16.015Z,21.80
2019-05-30T06:50:48.301Z,21.20
2019-05-30T06:53:21.024Z,21.10
2019-05-30T06:55:53.279Z,21.70
2019-05-30T06:58:43.662Z,22.50
2019-05-30T07:00:58.875Z,23.10
2019-05-30T07:03:32.475Z,23.70
2019-05-30T07:06:05.338Z,24.50
2019-05-30T07:08:38.227Z,24.80
2019-05-30T07:11:11.234Z,25.10
2019-05-30T07:13:43.656Z,25.10
2019-05-30T07:16:16.127Z,25.20
2019-05-30T07:18:49.265Z,25.50
2019-05-30T07:21:21.339Z,25.90
2019-05-30T07:23:53.042Z,25.80
2019-05-30T07:26:25.631Z,26.00
2019-05-30T07:29:00.651Z,26.20
2019-05-30T07:31:32.229Z,26.30
2019-05-30T07:34:04.404Z,26.30
2019-05-30T07:36:37.336Z,26.00
2019-05-30T07:39:10.851Z,25.60
2019-05-30T07:41:43.023Z,25.10
2019-05-30T07:44:15.085Z,24.90
2019-05-30T07:46:46.928Z,24.80
2019-05-30T07:49:19.342Z,24.80
2019-05-30T07:51:51.722Z,25.00
2019-05-30T07:54:23.925Z,25.10
2019-05-30T07:56:56.039Z,25.50
2019-05-30T07:59:28.233Z,25.80
2019-05-30T08:02:00.707Z,25.70
2019-05-30T08:04:34.090Z,25.40
2019-05-30T08:07:06.411Z,25.60
2019-05-30T08:09:37.858Z,25.80
2019-05-30T08:12:10.359Z,25.70
2019-05-30T08:14:42.593Z,25.60
2019-05-30T08:17:15.062Z,25.40
2019-05-30T08:19:47.560Z,25.30
2019-05-30T08:22:19.944Z,25.30
2019-05-30T08:24:52.968Z,25.30
2019-05-30T08:27:25.311Z,25.40
2019-05-30T08:29:58.280Z,25.30
2019-05-30T08:32:30.560Z,25.40
2019-05-30T08:35:02.862Z,25.70
2019-05-30T08:37:35.181Z,26.10
2019-05-30T08:40:08.300Z,26.20
2019-05-30T08:42:40.534Z,26.20
2019-05-30T08:45:13.237Z,26.40
2019-05-30T08:47:45.389Z,26.60
2019-05-30T08:50:18.113Z,26.50
2019-05-30T08:52:50.310Z,26.30
2019-05-30T08:55:22.836Z,26.30
2019-05-30T08:57:54.898Z,26.20
2019-05-30T09:00:27.878Z,25.80
2019-05-30T09:03:01.380Z,25.50
2019-05-30T09:05:33.270Z,25.10
2019-05-30T09:08:07.577Z,24.80
2019-05-30T09:10:40.859Z,24.50
2019-05-30T09:13:13.199Z,24.30
2019-05-30T09:15:45.350Z,24.30
2019-05-30T09:18:17.739Z,24.40
2019-05-30T09:20:49.654Z,24.50
2019-05-30T09:23:21.723Z,25.00
2019-05-30T09:25:54.565Z,25.20
2019-05-30T09:28:27.362Z,25.50
2019-05-30T09:30:59.268Z,25.90
2019-05-30T09:33:31.257Z,25.90
2019-05-30T09:36:12.811Z,25.60
2019-05-30T09:38:37.169Z,25.70
2019-05-30T09:41:09.518Z,26.00
2019-05-30T09:43:42.825Z,25.90
2019-05-30T09:46:15.238Z,25.50
2019-05-30T09:48:48.619Z,24.90
2019-05-30T09:51:20.672Z,24.30
2019-05-30T09:53:52.983Z,23.20
2019-05-30T09:56:25.083Z,22.20
2019-05-30T09:58:57.072Z,21.50
2019-05-30T10:01:29.230Z,21.00
2019-05-30T10:04:01.424Z,20.70
2019-05-30T10:06:33.519Z,20.80
2019-05-30T10:09:07.994Z,20.60
2019-05-30T10:11:39.828Z,20.60
2019-05-30T10:14:11.794Z,20.50
2019-05-30T10:16:47.312Z,20.40
2019-05-30T10:19:17.657Z,20.20
2019-05-30T10:21:51.574Z,20.10
2019-05-30T10:24:23.212Z,20.10
2019-05-30T10:26:55.291Z,20.00
2019-05-30T10:29:27.198Z,20.00
2019-05-30T10:31:59.097Z,19.90
2019-05-30T10:34:30.716Z,19.80
2019-05-30T10:37:02.996Z,19.90
2019-05-30T10:39:33.323Z,19.80
2019-05-30T10:42:05.571Z,19.80
2019-05-30T10:44:37.047Z,19.90
2019-05-30T10:47:09.007Z,19.90
2019-05-30T10:49:41.346Z,19.80
2019-05-30T10:52:13.635Z,19.70
2019-05-30T10:54:46.701Z,19.50
2019-05-30T10:57:20.303Z,19.40
2019-05-30T10:59:52.597Z,19.30
2019-05-30T11:02:24.816Z,19.30
2019-05-30T11:04:57.583Z,19.50
2019-05-30T11:07:41.626Z,19.40
2019-05-30T11:10:16.718Z,19.40
2019-05-30T11:12:51.203Z,19.40
2019-05-30T11:15:23.673Z,19.20
2019-05-30T11:17:57.688Z,19.20
2019-05-30T11:20:30.136Z,19.20
2019-05-30T11:23:03.150Z,19.10
2019-05-30T11:25:35.236Z,19.10
2019-05-30T11:28:08.887Z,19.30
2019-05-30T11:30:40.917Z,19.20
2019-05-30T11:33:13.073Z,19.10
2019-05-30T11:35:45.102Z,19.30
2019-05-30T11:38:17.022Z,19.40
2019-05-30T11:40:49.360Z,19.40
2019-05-30T11:43:22.044Z,19.40
2019-05-30T11:45:55.973Z,19.30
2019-05-30T11:48:28.107Z,19.30
2019-05-30T11:51:00.473Z,19.30
2019-05-30T11:53:33.152Z,19.30
2019-05-30T11:56:05.819Z,19.40
2019-05-30T11:58:37.870Z,19.50
2019-05-30T12:01:10.308Z,19.70
2019-05-30T12:03:42.039Z,19.60
2019-05-30T12:06:14.232Z,19.50
2019-05-30T12:08:46.268Z,19.50
2019-05-30T12:11:19.256Z,19.50
2019-05-30T12:13:53.403Z,19.60
2019-05-30T12:16:26.728Z,19.70
2019-05-30T12:18:59.716Z,19.80
2019-05-30T12:21:34.510Z,19.90
2019-05-30T12:24:07.338Z,19.90
2019-05-30T12:26:39.397Z,19.80
2019-05-30T12:29:11.845Z,19.80
2019-05-30T12:31:44.485Z,20.00
2019-05-30T12:34:16.109Z,20.00
2019-05-30T12:36:48.129Z,20.20
2019-05-30T12:39:20.660Z,20.20
2019-05-30T12:41:52.868Z,20.20
2019-05-30T12:44:26.843Z,20.10
2019-05-30T12:46:59.184Z,20.00
2019-05-30T12:49:31.283Z,20.00
2019-05-30T12:52:03.920Z,20.10
2019-05-30T12:54:37.405Z,20.20
2019-05-30T12:57:10.883Z,20.20
2019-05-30T12:59:43.513Z,20.40
2019-05-30T13:02:16.794Z,20.30
2019-05-30T13:04:48.608Z,20.10
2019-05-30T13:07:21.266Z,20.00
2019-05-30T13:09:53.512Z,20.00
2019-05-30T13:12:26.275Z,19.90
2019-05-30T13:14:59.530Z,19.70
2019-05-30T13:17:31.877Z,19.50
2019-05-30T13:20:04.015Z,19.50
2019-05-30T13:22:36.833Z,19.50
2019-05-30T13:25:10.993Z,19.50
2019-05-30T13:27:43.241Z,19.60
2019-05-30T13:30:15.502Z,19.60
2019-05-30T13:32:47.343Z,19.80
2019-05-30T13:35:19.513Z,19.90
2019-05-30T13:37:51.782Z,20.00
2019-05-30T13:40:25.684Z,20.10
2019-05-30T13:42:59.712Z,20.10
2019-05-30T13:45:32.109Z,19.90
2019-05-30T13:48:04.456Z,19.80
2019-05-30T13:50:36.341Z,19.60
2019-05-30T13:53:09.225Z,19.40
2019-05-30T13:55:41.638Z,19.30
2019-05-30T13:58:13.501Z,19.30
2019-05-30T14:00:46.416Z,19.30
2019-05-30T14:03:18.602Z,19.40
2019-05-30T14:05:51.181Z,19.50
2019-05-30T14:08:23.754Z,19.50
2019-05-30T14:10:56.162Z,19.60
2019-05-30T14:13:29.011Z,19.60
2019-05-30T14:16:02.728Z,19.50
2019-05-30T14:18:35.941Z,19.50
2019-05-30T14:21:09.407Z,19.40
2019-05-30T14:23:42.721Z,19.40
2019-05-30T14:26:15.794Z,19.40
2019-05-30T14:28:49.154Z,19.50
2019-05-30T14:31:21.327Z,19.50
2019-05-30T14:33:53.210Z,19.50
2019-05-30T14:36:25.708Z,19.60
2019-05-30T14:38:58.937Z,19.70
2019-05-30T14:41:31.089Z,19.60
2019-05-30T14:44:03.103Z,19.60
2019-05-30T14:46:35.362Z,19.50
2019-05-30T14:49:08.625Z,19.40
2019-05-30T14:51:41.153Z,19.50
2019-05-30T14:54:13.302Z,19.50
2019-05-30T14:56:45.801Z,19.60
2019-05-30T14:59:18.050Z,19.50
2019-05-30T15:01:50.341Z,19.40
2019-05-30T15:04:22.181Z,19.40
2019-05-30T15:06:54.213Z,19.30
2019-05-30T15:09:26.609Z,19.20
2019-05-30T15:11:58.521Z,19.10
2019-05-30T15:14:30.548Z,19.10
2019-05-30T15:17:02.454Z,19.10
2019-05-30T15:19:34.662Z,19.20
2019-05-30T15:22:07.470Z,19.30
2019-05-30T15:24:39.848Z,19.30
2019-05-30T15:27:12.149Z,19.30
2019-05-30T15:29:44.189Z,19.30
2019-05-30T15:32:16.636Z,19.30
2019-05-30T15:34:48.845Z,19.30
2019-05-30T15:37:23.868Z,19.30
2019-05-30T15:39:56.000Z,19.30
2019-05-30T15:42:28.224Z,19.30
2019-05-30T15:45:00.523Z,19.20
2019-05-30T15:47:32.620Z,19.20
2019-05-30T15:50:05.024Z,19.20
2019-05-30T15:52:36.843Z,19.20
2019-05-30T15:55:09.454Z,19.20
2019-05-30T15:57:41.954Z,19.20
2019-05-30T16:00:16.376Z,19.10
2019-05-30T16:02:48.582Z,19.10
2019-05-30T16:05:21.009Z,19.10
2019-05-30T16:07:53.342Z,19.10
2019-05-30T16:10:25.326Z,19.00
2019-05-30T16:12:56.980Z,19.00
2019-05-30T16:15:29.062Z,18.90
2019-05-30T16:18:01.652Z,18.90
2019-05-30T16:20:33.590Z,18.90
2019-05-30T16:23:05.727Z,18.80
2019-05-30T16:25:37.552Z,18.80
2019-05-30T16:28:09.660Z,18.70
2019-05-30T16:30:42.804Z,18.60
2019-05-30T16:33:15.893Z,18.60
2019-05-30T16:35:48.345Z,18.60
2019-05-30T16:38:20.463Z,18.60
2019-05-30T16:40:52.838Z,18.60
2019-05-30T16:43:25.186Z,18.60
2019-05-30T16:45:57.442Z,18.60
2019-05-30T16:48:29.606Z,18.60
2019-05-30T16:51:02.033Z,18.60
2019-05-30T16:53:34.009Z,18.60
2019-05-30T16:56:06.285Z,18.60
2019-05-30T16:58:38.371Z,18.50
2019-05-30T17:01:10.604Z,18.50
2019-05-30T17:03:42.460Z,18.50
2019-05-30T17:06:14.273Z,18.40
2019-05-30T17:08:46.230Z,18.40
2019-05-30T17:11:19.275Z,18.50
2019-05-30T17:13:51.664Z,18.50
2019-05-30T17:16:24.233Z,18.50
2019-05-30T17:18:56.293Z,18.40
2019-05-30T17:21:28.400Z,18.40
2019-05-30T17:24:00.514Z,18.40
2019-05-30T17:26:32.577Z,18.30
2019-05-30T17:29:04.686Z,18.30
2019-05-30T17:31:36.466Z,18.20
2019-05-30T17:34:08.882Z,18.20
2019-05-30T17:36:40.739Z,18.20
2019-05-30T17:39:12.757Z,18.10
2019-05-30T17:41:45.022Z,18.00
2019-05-30T17:44:17.171Z,18.00
2019-05-30T17:46:49.178Z,18.00
2019-05-30T17:49:21.739Z,18.00
2019-05-30T17:51:54.128Z,18.00
2019-05-30T17:54:26.573Z,18.00
2019-05-30T17:56:58.634Z,18.00
2019-05-30T17:59:30.734Z,18.00
2019-05-30T18:02:04.128Z,18.00
2019-05-30T18:04:36.264Z,18.10
2019-05-30T18:07:08.910Z,18.10
2019-05-30T18:09:40.857Z,18.00
2019-05-30T18:12:12.799Z,18.00
2019-05-30T18:14:44.816Z,18.00
2019-05-30T18:17:16.657Z,18.00
2019-05-30T18:19:48.538Z,17.90
2019-05-30T18:22:21.442Z,17.90
2019-05-30T18:24:53.796Z,17.90
2019-05-30T18:27:25.939Z,17.80
2019-05-30T18:29:57.936Z,17.70
2019-05-30T18:32:30.283Z,17.60
2019-05-30T18:35:02.662Z,17.50
2019-05-30T18:37:34.923Z,17.40
2019-05-30T18:40:07.437Z,17.40
2019-05-30T18:42:39.698Z,17.40
2019-05-30T18:45:11.800Z,17.30
2019-05-30T18:47:43.720Z,17.30
2019-05-30T18:50:15.478Z,17.30
2019-05-30T18:52:48.018Z,17.10
2019-05-30T18:55:20.091Z,17.00
2019-05-30T18:57:52.167Z,16.90
2019-05-30T19:00:24.915Z,16.80
2019-05-30T19:02:56.650Z,16.80
2019-05-30T19:05:28.642Z,16.70
2019-05-30T19:08:00.863Z,16.60
2019-05-30T19:10:34.204Z,16.50
2019-05-30T19:13:06.412Z,16.40
2019-05-30T19:15:38.119Z,16.40
2019-05-30T19:18:10.114Z,16.30
2019-05-30T19:20:42.150Z,16.20
2019-05-30T19:23:14.133Z,16.10
2019-05-30T19:25:46.567Z,16.10
2019-05-30T19:28:18.424Z,16.00
2019-05-30T19:30:50.110Z,16.00
2019-05-30T19:33:22.180Z,16.00
2019-05-30T19:35:54.564Z,16.00
2019-05-30T19:38:27.208Z,16.00
2019-05-30T19:40:59.108Z,16.00
2019-05-30T19:43:31.747Z,15.90
2019-05-30T19:46:03.929Z,16.00
2019-05-30T19:48:36.519Z,15.90
2019-05-30T19:51:08.942Z,15.90
2019-05-30T19:53:41.335Z,15.80
2019-05-30T19:56:13.282Z,15.80
2019-05-30T19:58:45.203Z,15.80
2019-05-30T20:01:17.212Z,15.80
2019-05-30T20:03:49.176Z,15.80
2019-05-30T20:06:24.044Z,15.80
2019-05-30T20:08:55.688Z,15.80
2019-05-30T20:11:28.292Z,15.80
2019-05-30T20:14:00.178Z,15.80
2019-05-30T20:16:32.124Z,15.80
2019-05-30T20:19:04.306Z,15.80
2019-05-30T20:21:36.184Z,15.80
2019-05-30T20:24:08.266Z,15.70
2019-05-30T20:26:40.670Z,15.70
2019-05-30T20:29:12.548Z,15.70
2019-05-30T20:31:45.741Z,15.70
2019-05-30T20:34:17.791Z,15.70
2019-05-30T20:36:49.646Z,15.70
2019-05-30T20:39:21.346Z,15.60
2019-05-30T20:41:53.994Z,15.60
2019-05-30T20:44:26.108Z,15.60
2019-05-30T20:46:58.162Z,15.60
2019-05-30T20:49:29.858Z,15.50
2019-05-30T20:52:02.209Z,15.50
2019-05-30T20:54:35.159Z,15.50
2019-05-30T20:57:07.226Z,15.50
2019-05-30T20:59:39.016Z,15.40
2019-05-30T21:02:11.028Z,15.40
2019-05-30T21:04:43.054Z,15.30
2019-05-30T21:07:15.149Z,15.30
2019-05-30T21:09:47.141Z,15.20
2019-05-30T21:12:36.395Z,15.20
2019-05-30T21:14:54.813Z,15.20
2019-05-30T21:17:27.869Z,15.10
2019-05-30T21:19:59.458Z,15.10
2019-05-30T21:22:31.444Z,15.00
2019-05-30T21:25:03.401Z,15.00
2019-05-30T21:27:35.177Z,14.90
2019-05-30T21:30:07.635Z,14.90
2019-05-30T21:32:40.100Z,14.90
2019-05-30T21:35:14.407Z,14.90
2019-05-30T21:37:47.799Z,14.80
2019-05-30T21:40:20.302Z,14.80
2019-05-30T21:43:04.827Z,14.80
2019-05-30T21:45:27.264Z,14.70
2019-05-30T21:47:59.242Z,14.70
2019-05-30T21:50:31.673Z,14.70
2019-05-30T21:53:04.227Z,14.70
2019-05-30T21:55:36.282Z,14.70
2019-05-30T21:58:08.275Z,14.70
2019-05-30T22:01:34.334Z,14.70
2019-05-30T22:04:07.450Z,14.70
2019-05-30T22:06:40.719Z,14.70
2019-05-30T22:09:13.068Z,14.60
2019-05-30T22:11:45.580Z,14.60
2019-05-30T22:14:17.674Z,14.60
2019-05-30T22:16:50.246Z,14.60
2019-05-30T22:19:22.400Z,14.50
2019-05-30T22:21:54.248Z,14.50
2019-05-30T22:24:25.933Z,14.50
2019-05-30T22:26:57.830Z,14.50
2019-05-30T22:29:29.777Z,14.50
2019-05-30T22:32:01.606Z,14.50
2019-05-30T22:34:33.298Z,14.50
2019-05-30T22:37:05.264Z,14.40
2019-05-30T22:39:37.030Z,14.40
2019-05-30T22:42:08.834Z,14.40
2019-05-30T22:44:40.635Z,14.40
2019-05-30T22:47:12.617Z,14.40
2019-05-30T22:49:44.692Z,14.30
2019-05-30T22:52:16.910Z,14.40
2019-05-30T22:54:49.055Z,14.30
2019-05-30T22:57:21.362Z,14.30
2019-05-30T22:59:53.643Z,14.30
2019-05-30T23:02:25.447Z,14.30
2019-05-30T23:04:57.416Z,14.20
2019-05-30T23:07:29.234Z,14.30
2019-05-30T23:10:01.277Z,14.20
2019-05-30T23:12:33.012Z,14.20
2019-05-30T23:15:05.064Z,14.20
2019-05-30T23:17:36.919Z,14.20
2019-05-30T23:20:09.300Z,14.20
2019-05-30T23:22:41.161Z,14.20
2019-05-30T23:25:13.158Z,14.20
2019-05-30T23:27:45.062Z,14.10
2019-05-30T23:30:17.106Z,14.10
2019-05-30T23:32:50.313Z,14.00
2019-05-30T23:35:22.146Z,14.00
2019-05-30T23:37:54.705Z,14.00
2019-05-30T23:40:26.594Z,13.90
2019-05-30T23:42:59.251Z,13.90
2019-05-30T23:45:31.226Z,13.80
2019-05-30T23:48:02.942Z,13.80
2019-05-30T23:50:34.962Z,13.70
2019-05-30T23:53:06.924Z,13.70
2019-05-30T23:55:39.178Z,13.60
2019-05-30T23:58:10.786Z,13.60
